Time;durP1;ratioP1;P1;durP2;ratioP2;P2;SDS_P1;SDS_P2;PMS_P1;PMS_P2;Temp;Humidity;BMP_temperature;BMP_pressure;BME280_temperature;BME280_humidity;BME280_pressure;Samples;Min_cycle;Max_cycle;Signal;HPM_P1;HPM_P2
2022/03/19 00:00:42;;;;;;;65.17;34.97;;;;;;;;;;5013319;28;20175;-77
2022/03/19 00:03:07;;;;;;;59.23;35.03;;;;;;;;;;4989935;28;20176;-77
2022/03/19 00:05:33;;;;;;;59.20;34.20;;;;;;;;;;5018507;28;20242;-77
2022/03/19 00:07:58;;;;;;;56.67;32.03;;;;;;;;;;5024183;28;20181;-77
2022/03/19 00:10:24;;;;;;;52.50;29.73;;;;;;;;;;5004741;28;20186;-76
2022/03/19 00:12:49;;;;;;;49.23;29.37;;;;;;;;;;5004014;28;20232;-77
2022/03/19 00:15:18;;;;;;;49.13;27.73;;;;;;;;;;4999644;28;20179;-77
2022/03/19 00:17:43;;;;;;;60.73;36.70;;;;;;;;;;4995447;28;20193;-77
2022/03/19 00:20:08;;;;;;;54.87;31.40;;;;;;;;;;5021347;28;20175;-77
2022/03/19 00:22:34;;;;;;;62.27;35.90;;;;;;;;;;5021051;28;20210;-77
2022/03/19 00:24:59;;;;;;;57.87;33.80;;;;;;;;;;5001913;28;20218;-77
2022/03/19 00:27:25;;;;;;;57.83;34.00;;;;;;;;;;4996883;28;20185;-77
2022/03/19 00:29:50;;;;;;;60.80;35.27;;;;;;;;;;5017017;28;20179;-77
2022/03/19 00:32:16;;;;;;;63.57;37.07;;;;;;;;;;5027016;28;20214;-77
2022/03/19 00:34:41;;;;;;;50.87;29.90;;;;;;;;;;4996857;28;20184;-77
2022/03/19 00:37:06;;;;;;;61.30;35.10;;;;;;;;;;5013054;28;20237;-77
2022/03/19 00:39:31;;;;;;;58.05;33.60;;;;;;;;;;5025963;28;20236;-77
2022/03/19 00:41:56;;;;;;;55.73;32.80;;;;;;;;;;5002257;28;20213;-77
2022/03/19 00:44:22;;;;;;;57.00;33.07;;;;;;;;;;5026697;28;20219;-77
2022/03/19 00:46:48;;;;;;;55.87;30.37;;;;;;;;;;4988876;28;20203;-77
2022/03/19 00:49:14;;;;;;;55.93;34.10;;;;;;;;;;5035275;28;20203;-77
2022/03/19 00:51:40;;;;;;;59.77;37.43;;;;;;;;;;5004640;28;20187;-77
2022/03/19 00:54:06;;;;;;;33.97;22.03;;;;;;;;;;5005386;28;20386;-77
2022/03/19 00:56:32;;;;;;;56.70;34.50;;;;;;;;;;5009580;28;20562;-77
2022/03/19 00:58:57;;;;;;;59.83;35.63;;;;;;;;;;4993163;28;20187;-77
2022/03/19 01:01:25;;;;;;;55.53;33.00;;;;;;;;;;4993912;28;20215;-77
2022/03/19 01:03:50;;;;;;;44.37;26.30;;;;;;;;;;4994327;28;20247;-77
2022/03/19 01:06:15;;;;;;;58.03;33.10;;;;;;;;;;4996484;28;20181;-77
2022/03/19 01:08:40;;;;;;;55.97;34.93;;;;;;;;;;5027025;28;20218;-77
2022/03/19 01:11:05;;;;;;;57.47;33.83;;;;;;;;;;5015817;28;20274;-77
2022/03/19 01:13:31;;;;;;;56.33;32.80;;;;;;;;;;5000783;28;20289;-77
2022/03/19 01:15:57;;;;;;;58.40;33.80;;;;;;;;;;4993705;28;20196;-77
2022/03/19 01:18:22;;;;;;;58.40;34.50;;;;;;;;;;5016598;28;20182;-77
2022/03/19 01:20:47;;;;;;;59.17;34.10;;;;;;;;;;4995294;28;20175;-77
2022/03/19 01:23:12;;;;;;;58.23;34.17;;;;;;;;;;4998047;28;20233;-77
2022/03/19 01:25:39;;;;;;;53.90;31.40;;;;;;;;;;4992967;28;20202;-77
2022/03/19 01:28:04;;;;;;;55.37;32.63;;;;;;;;;;4998670;28;20625;-76
2022/03/19 01:30:29;;;;;;;47.30;27.70;;;;;;;;;;5003828;28;20175;-77
2022/03/19 01:32:54;;;;;;;54.30;34.83;;;;;;;;;;5011959;28;20270;-77
2022/03/19 01:35:20;;;;;;;51.87;31.23;;;;;;;;;;5016452;28;20187;-77
2022/03/19 01:37:46;;;;;;;57.10;33.03;;;;;;;;;;5024128;28;20176;-77
2022/03/19 01:40:12;;;;;;;60.20;34.10;;;;;;;;;;4998688;28;20199;-76
2022/03/19 01:42:39;;;;;;;53.93;32.13;;;;;;;;;;5024973;28;20187;-77
2022/03/19 01:45:05;;;;;;;57.00;33.13;;;;;;;;;;5018570;28;20185;-77
2022/03/19 01:47:30;;;;;;;51.50;31.63;;;;;;;;;;4990490;28;20179;-77
2022/03/19 01:49:57;;;;;;;53.57;31.20;;;;;;;;;;5002792;28;20252;-77
2022/03/19 01:52:22;;;;;;;58.00;34.37;;;;;;;;;;5017050;28;20234;-77
2022/03/19 01:54:48;;;;;;;56.43;33.00;;;;;;;;;;4993490;28;20206;-77
2022/03/19 01:57:14;;;;;;;54.77;33.53;;;;;;;;;;4997658;28;20179;-77
2022/03/19 01:59:40;;;;;;;53.43;33.00;;;;;;;;;;4992713;28;20230;-77
2022/03/19 02:02:06;;;;;;;58.70;34.53;;;;;;;;;;5013042;28;20206;-77
2022/03/19 02:04:33;;;;;;;51.17;32.00;;;;;;;;;;4996556;28;20200;-77
2022/03/19 02:07:00;;;;;;;58.57;33.57;;;;;;;;;;5002632;28;20170;-77
2022/03/19 02:09:25;;;;;;;56.57;33.17;;;;;;;;;;4999997;28;20251;-77
2022/03/19 02:11:51;;;;;;;58.90;34.10;;;;;;;;;;4993738;28;23292;-77
2022/03/19 02:14:17;;;;;;;49.53;30.47;;;;;;;;;;4992570;28;20241;-77
2022/03/19 02:16:43;;;;;;;56.10;36.17;;;;;;;;;;4995650;28;20287;-77
2022/03/19 02:19:08;;;;;;;51.77;31.73;;;;;;;;;;5032276;28;20257;-77
2022/03/19 02:21:40;;;;;;;52.83;33.50;;;;;;;;;;4998163;28;20175;-77
2022/03/19 02:26:49;;;;;;;55.03;34.10;;;;;;;;;;5007932;28;20187;-77
2022/03/19 02:29:15;;;;;;;55.33;32.80;;;;;;;;;;5003134;28;20176;-77
2022/03/19 02:31:41;;;;;;;50.00;29.73;;;;;;;;;;5014870;28;20194;-77
2022/03/19 02:34:08;;;;;;;52.93;31.73;;;;;;;;;;4995868;28;20621;-77
2022/03/19 02:36:34;;;;;;;54.37;31.70;;;;;;;;;;4997121;28;20191;-77
2022/03/19 02:38:59;;;;;;;59.77;35.00;;;;;;;;;;5002387;28;20167;-77
2022/03/19 02:41:24;;;;;;;56.90;34.43;;;;;;;;;;4997346;28;20201;-77
2022/03/19 02:43:50;;;;;;;56.07;34.13;;;;;;;;;;4992434;28;20164;-77
2022/03/19 02:46:15;;;;;;;51.43;29.73;;;;;;;;;;5007258;28;20258;-77
2022/03/19 02:48:40;;;;;;;50.27;33.37;;;;;;;;;;4992267;28;20171;-77
2022/03/19 02:51:08;;;;;;;51.07;31.60;;;;;;;;;;4992487;28;20243;-77
2022/03/19 02:53:33;;;;;;;35.23;20.23;;;;;;;;;;4995288;28;20203;-77
2022/03/19 02:55:58;;;;;;;18.43;10.83;;;;;;;;;;4994509;28;20178;-77
2022/03/19 02:58:24;;;;;;;54.93;32.67;;;;;;;;;;4996905;28;20285;-77
2022/03/19 03:00:49;;;;;;;52.80;32.57;;;;;;;;;;4990063;28;20172;-77
2022/03/19 03:03:14;;;;;;;51.77;31.03;;;;;;;;;;4989142;28;20184;-77
2022/03/19 03:05:40;;;;;;;55.30;31.70;;;;;;;;;;4995928;28;20254;-77
2022/03/19 03:08:05;;;;;;;55.70;31.30;;;;;;;;;;5009894;28;20242;-77
2022/03/19 03:10:31;;;;;;;57.97;30.60;;;;;;;;;;4999802;28;20261;-77
2022/03/19 03:12:56;;;;;;;46.10;27.20;;;;;;;;;;5018029;28;20286;-77
2022/03/19 03:15:21;;;;;;;44.23;27.03;;;;;;;;;;4995829;28;20193;-77
2022/03/19 03:17:49;;;;;;;50.40;32.23;;;;;;;;;;4991787;28;20178;-77
2022/03/19 03:20:14;;;;;;;51.97;31.07;;;;;;;;;;4993570;28;20180;-77
2022/03/19 03:22:42;;;;;;;49.87;27.20;;;;;;;;;;5020643;28;20174;-77
2022/03/19 03:25:07;;;;;;;50.53;31.27;;;;;;;;;;4999122;28;20270;-77
2022/03/19 03:27:32;;;;;;;51.67;29.60;;;;;;;;;;5011850;28;20243;-77
2022/03/19 03:29:58;;;;;;;47.27;29.47;;;;;;;;;;5003162;28;20176;-77
2022/03/19 03:32:23;;;;;;;54.30;31.00;;;;;;;;;;5016058;28;20202;-77
2022/03/19 03:34:48;;;;;;;51.03;32.20;;;;;;;;;;5009723;28;20233;-77
2022/03/19 03:37:13;;;;;;;47.27;30.00;;;;;;;;;;4993329;28;20175;-77
2022/03/19 03:39:38;;;;;;;60.27;32.40;;;;;;;;;;5000220;28;20170;-77
2022/03/19 03:42:04;;;;;;;51.70;30.87;;;;;;;;;;5003599;28;20174;-77
2022/03/19 03:44:29;;;;;;;53.00;31.37;;;;;;;;;;5023903;28;20313;-77
2022/03/19 03:46:54;;;;;;;49.83;29.73;;;;;;;;;;5006421;28;20183;-77
2022/03/19 03:49:19;;;;;;;49.23;30.83;;;;;;;;;;5003201;28;20187;-77
2022/03/19 03:51:45;;;;;;;54.27;31.80;;;;;;;;;;5032375;28;20179;-77
2022/03/19 03:54:10;;;;;;;56.17;33.90;;;;;;;;;;4993904;28;20226;-77
2022/03/19 03:56:35;;;;;;;50.27;31.33;;;;;;;;;;5023944;28;20241;-77
2022/03/19 03:59:01;;;;;;;50.23;27.50;;;;;;;;;;5019377;28;20217;-77
2022/03/19 04:01:26;;;;;;;43.27;24.37;;;;;;;;;;4996809;28;20172;-77
2022/03/19 04:03:51;;;;;;;50.30;27.87;;;;;;;;;;5022304;28;20277;-77
2022/03/19 04:06:16;;;;;;;36.67;21.77;;;;;;;;;;5014643;28;20183;-77
2022/03/19 04:08:42;;;;;;;33.57;22.07;;;;;;;;;;5027963;28;20174;-77
2022/03/19 04:11:07;;;;;;;42.83;19.97;;;;;;;;;;4995197;28;20190;-77
2022/03/19 04:13:34;;;;;;;54.03;34.17;;;;;;;;;;5027994;28;20223;-77
2022/03/19 04:15:59;;;;;;;42.67;27.77;;;;;;;;;;4996660;28;20172;-77
2022/03/19 04:18:26;;;;;;;50.37;31.07;;;;;;;;;;4994839;28;20191;-77
2022/03/19 04:20:51;;;;;;;49.37;29.90;;;;;;;;;;5005451;28;20175;-77
2022/03/19 04:23:17;;;;;;;49.93;30.93;;;;;;;;;;5005749;28;20213;-77
2022/03/19 04:25:42;;;;;;;49.97;27.70;;;;;;;;;;5034413;28;20203;-77
2022/03/19 04:28:11;;;;;;;49.67;28.60;;;;;;;;;;5007507;28;20186;-77
2022/03/19 04:30:37;;;;;;;39.27;23.53;;;;;;;;;;5018878;28;20183;-77
2022/03/19 04:33:08;;;;;;;48.67;27.53;;;;;;;;;;5000661;28;20206;-77
2022/03/19 04:38:18;;;;;;;48.80;30.07;;;;;;;;;;5021628;28;20191;-77
2022/03/19 04:40:44;;;;;;;52.07;29.67;;;;;;;;;;4997599;28;20175;-77
2022/03/19 04:43:09;;;;;;;48.13;27.70;;;;;;;;;;5000427;28;20179;-77
2022/03/19 04:45:35;;;;;;;44.87;24.23;;;;;;;;;;5008991;28;20186;-77
2022/03/19 04:48:00;;;;;;;43.07;23.47;;;;;;;;;;5002970;28;20265;-77
2022/03/19 04:50:25;;;;;;;48.87;26.67;;;;;;;;;;4996664;28;20435;-77
2022/03/19 04:52:51;;;;;;;41.90;23.60;;;;;;;;;;5001344;28;20195;-77
2022/03/19 04:55:16;;;;;;;47.57;27.80;;;;;;;;;;4994940;28;20553;-77
2022/03/19 04:57:42;;;;;;;56.40;29.67;;;;;;;;;;5007264;28;20171;-77
2022/03/19 05:00:09;;;;;;;49.07;26.23;;;;;;;;;;4994798;28;20186;-77
2022/03/19 05:02:34;;;;;;;49.13;28.67;;;;;;;;;;5009706;28;20261;-77
2022/03/19 05:05:00;;;;;;;23.20;15.43;;;;;;;;;;5002520;28;20333;-77
2022/03/19 05:07:26;;;;;;;51.73;28.60;;;;;;;;;;5033730;28;20206;-77
2022/03/19 05:12:36;;;;;;;50.20;29.83;;;;;;;;;;5012966;28;20238;-77
2022/03/19 05:15:02;;;;;;;43.73;26.23;;;;;;;;;;5005073;28;20210;-77
2022/03/19 05:17:27;;;;;;;48.83;29.50;;;;;;;;;;5009696;28;20175;-77
2022/03/19 05:19:53;;;;;;;39.23;23.10;;;;;;;;;;5011470;28;20172;-77
2022/03/19 05:22:18;;;;;;;51.40;28.17;;;;;;;;;;5002738;28;20278;-77
2022/03/19 05:24:44;;;;;;;33.73;17.90;;;;;;;;;;5001031;28;20199;-77
2022/03/19 05:27:12;;;;;;;50.40;29.67;;;;;;;;;;4994618;28;20492;-77
2022/03/19 05:29:37;;;;;;;34.40;20.63;;;;;;;;;;5024802;28;20265;-77
2022/03/19 05:32:03;;;;;;;49.60;28.60;;;;;;;;;;4994872;28;20342;-77
2022/03/19 05:34:31;;;;;;;40.63;22.57;;;;;;;;;;4994938;28;20179;-77
2022/03/19 05:37:04;;;;;;;50.37;29.73;;;;;;;;;;4995244;28;20232;-77
2022/03/19 05:39:30;;;;;;;44.40;26.87;;;;;;;;;;5002626;28;20176;-77
2022/03/19 05:41:55;;;;;;;47.00;29.07;;;;;;;;;;5003651;28;20182;-77
2022/03/19 05:44:20;;;;;;;47.97;28.03;;;;;;;;;;5002850;28;20183;-77
2022/03/19 05:46:47;;;;;;;36.90;22.47;;;;;;;;;;4994918;28;20167;-77
2022/03/19 05:49:12;;;;;;;40.97;21.90;;;;;;;;;;5013031;28;20186;-77
2022/03/19 05:51:37;;;;;;;51.70;27.67;;;;;;;;;;4994626;28;20171;-77
2022/03/19 05:54:02;;;;;;;48.00;29.00;;;;;;;;;;4991555;28;20214;-77
2022/03/19 05:56:28;;;;;;;50.07;29.93;;;;;;;;;;5004564;28;20179;-77
2022/03/19 05:58:54;;;;;;;44.17;27.40;;;;;;;;;;4999789;28;20183;-77
2022/03/19 06:01:25;;;;;;;43.23;25.47;;;;;;;;;;4998655;28;20175;-77
2022/03/19 06:03:53;;;;;;;48.43;25.77;;;;;;;;;;5008944;28;20261;-78
2022/03/19 06:06:21;;;;;;;35.67;19.13;;;;;;;;;;4989934;28;20188;-77
2022/03/19 06:08:46;;;;;;;49.83;26.97;;;;;;;;;;4996608;28;20175;-77
2022/03/19 06:11:11;;;;;;;49.30;28.33;;;;;;;;;;5015033;28;20194;-77
2022/03/19 06:13:37;;;;;;;42.60;23.77;;;;;;;;;;4995466;28;20292;-77
2022/03/19 06:16:02;;;;;;;38.53;20.43;;;;;;;;;;4996116;28;20262;-77
2022/03/19 06:18:27;;;;;;;48.30;27.57;;;;;;;;;;5023711;28;20177;-77
2022/03/19 06:20:52;;;;;;;27.90;15.97;;;;;;;;;;5001112;28;20238;-77
2022/03/19 06:23:18;;;;;;;40.37;24.33;;;;;;;;;;4993906;28;20602;-77
2022/03/19 06:25:43;;;;;;;42.57;23.83;;;;;;;;;;4991653;28;20187;-77
2022/03/19 06:28:08;;;;;;;35.97;21.53;;;;;;;;;;4997134;28;20182;-77
2022/03/19 06:30:37;;;;;;;43.40;23.87;;;;;;;;;;5000967;28;20191;-77
2022/03/19 06:33:02;;;;;;;40.77;23.87;;;;;;;;;;4996398;28;20191;-77
2022/03/19 06:38:13;;;;;;;31.93;18.17;;;;;;;;;;5021598;28;20241;-77
2022/03/19 06:40:38;;;;;;;40.57;22.50;;;;;;;;;;4998867;28;20174;-77
2022/03/19 06:43:03;;;;;;;36.03;22.27;;;;;;;;;;5011903;28;20196;-77
2022/03/19 06:45:28;;;;;;;34.63;18.80;;;;;;;;;;4992885;28;20191;-77
2022/03/19 06:47:54;;;;;;;41.93;23.43;;;;;;;;;;4998396;28;20269;-77
2022/03/19 06:50:19;;;;;;;41.37;25.17;;;;;;;;;;4994077;28;20187;-77
2022/03/19 06:52:44;;;;;;;44.23;26.43;;;;;;;;;;4992816;28;20225;-75
2022/03/19 06:55:09;;;;;;;26.07;15.80;;;;;;;;;;4989316;28;20175;-77
2022/03/19 06:57:34;;;;;;;42.03;24.93;;;;;;;;;;5009213;28;20186;-77
2022/03/19 07:00:00;;;;;;;35.40;21.97;;;;;;;;;;4991252;28;20184;-77
2022/03/19 07:02:25;;;;;;;46.13;28.47;;;;;;;;;;5010363;28;20181;-77
2022/03/19 07:04:50;;;;;;;31.73;18.03;;;;;;;;;;4997968;28;20202;-77
2022/03/19 07:07:17;;;;;;;24.80;16.33;;;;;;;;;;4993201;28;20183;-77
2022/03/19 07:09:42;;;;;;;41.67;22.50;;;;;;;;;;4990478;28;20187;-77
2022/03/19 07:12:11;;;;;;;47.93;26.13;;;;;;;;;;5008167;28;20286;-77
2022/03/19 07:14:36;;;;;;;38.07;23.43;;;;;;;;;;4990627;28;20230;-77
2022/03/19 07:17:01;;;;;;;40.43;25.13;;;;;;;;;;4992630;28;20163;-77
2022/03/19 07:19:26;;;;;;;44.30;27.10;;;;;;;;;;4994097;28;20198;-77
2022/03/19 07:21:52;;;;;;;34.73;16.60;;;;;;;;;;5002377;28;20290;-77
2022/03/19 07:24:17;;;;;;;49.40;29.43;;;;;;;;;;4988130;28;20253;-77
2022/03/19 07:26:42;;;;;;;49.77;27.33;;;;;;;;;;4993791;28;20184;-77
2022/03/19 07:29:07;;;;;;;29.13;13.67;;;;;;;;;;4996076;28;20254;-77
2022/03/19 07:31:32;;;;;;;40.80;23.20;;;;;;;;;;5010827;28;20179;-77
2022/03/19 07:33:58;;;;;;;45.83;26.33;;;;;;;;;;5004151;28;20210;-77
2022/03/19 07:36:23;;;;;;;39.53;24.43;;;;;;;;;;4993021;28;20184;-77
2022/03/19 07:38:49;;;;;;;43.17;27.47;;;;;;;;;;5011979;28;20172;-77
2022/03/19 07:43:58;;;;;;;41.83;24.27;;;;;;;;;;5006912;28;20197;-77
2022/03/19 07:46:25;;;;;;;34.23;19.13;;;;;;;;;;5002859;28;20179;-76
2022/03/19 07:48:50;;;;;;;37.73;21.63;;;;;;;;;;4989843;28;20192;-77
2022/03/19 07:51:15;;;;;;;48.83;28.53;;;;;;;;;;4988463;28;20188;-77
2022/03/19 07:53:41;;;;;;;27.97;16.87;;;;;;;;;;5011487;28;20199;-77
2022/03/19 07:56:06;;;;;;;43.07;27.00;;;;;;;;;;4986894;28;20183;-77
2022/03/19 07:58:31;;;;;;;36.77;22.00;;;;;;;;;;4996712;28;20589;-77
2022/03/19 08:00:56;;;;;;;44.87;26.07;;;;;;;;;;5018644;28;20180;-77
2022/03/19 08:03:21;;;;;;;48.57;29.73;;;;;;;;;;5007806;28;20198;-77
2022/03/19 08:05:47;;;;;;;38.93;20.77;;;;;;;;;;5010282;28;20192;-76
2022/03/19 08:08:12;;;;;;;45.87;20.03;;;;;;;;;;4997027;28;20187;-76
2022/03/19 08:10:37;;;;;;;24.70;15.43;;;;;;;;;;4995764;28;20174;-77
2022/03/19 08:13:04;;;;;;;45.03;28.20;;;;;;;;;;5005891;28;20251;-77
2022/03/19 08:15:29;;;;;;;33.50;18.47;;;;;;;;;;5007921;28;20184;-77
2022/03/19 08:17:55;;;;;;;36.63;23.20;;;;;;;;;;5009213;28;20175;-76
2022/03/19 08:20:20;;;;;;;18.00;11.93;;;;;;;;;;5009677;28;20176;-76
2022/03/19 08:22:45;;;;;;;18.10;12.50;;;;;;;;;;5014074;28;20180;-76
2022/03/19 08:25:11;;;;;;;33.80;22.10;;;;;;;;;;5005584;28;20179;-76
2022/03/19 08:27:36;;;;;;;41.60;24.90;;;;;;;;;;4995242;28;20218;-76
2022/03/19 08:30:03;;;;;;;43.50;27.57;;;;;;;;;;5016124;28;20183;-76
2022/03/19 08:32:29;;;;;;;39.93;25.13;;;;;;;;;;5003257;28;20212;-77
2022/03/19 08:34:54;;;;;;;28.87;18.13;;;;;;;;;;4992826;28;20180;-76
2022/03/19 08:37:19;;;;;;;30.17;18.57;;;;;;;;;;4996524;28;20180;-76
2022/03/19 08:42:28;;;;;;;41.43;25.77;;;;;;;;;;5023031;28;20194;-76
2022/03/19 08:44:56;;;;;;;28.83;16.67;;;;;;;;;;4990595;28;20262;-76
2022/03/19 08:47:22;;;;;;;35.17;17.17;;;;;;;;;;4994728;28;20247;-76
2022/03/19 08:49:47;;;;;;;10.63;8.07;;;;;;;;;;5008579;28;20184;-82
2022/03/19 08:52:12;;;;;;;37.10;20.27;;;;;;;;;;4995551;28;20298;-84
2022/03/19 08:54:37;;;;;;;26.83;15.43;;;;;;;;;;5022519;28;20257;-84
2022/03/19 08:57:02;;;;;;;24.57;14.97;;;;;;;;;;5001759;28;20167;-84
2022/03/19 08:59:28;;;;;;;31.43;18.10;;;;;;;;;;4993884;28;20195;-83
2022/03/19 09:01:53;;;;;;;24.00;17.03;;;;;;;;;;4999100;28;20206;-83
2022/03/19 09:04:19;;;;;;;19.30;12.50;;;;;;;;;;5014099;28;20211;-85
2022/03/19 09:06:44;;;;;;;22.20;14.63;;;;;;;;;;5004321;28;20209;-85
2022/03/19 09:09:11;;;;;;;36.53;27.80;;;;;;;;;;4991686;28;20207;-83
2022/03/19 09:11:36;;;;;;;35.90;19.17;;;;;;;;;;5013359;28;20238;-83
2022/03/19 09:14:03;;;;;;;26.90;14.47;;;;;;;;;;5012474;28;20333;-83
2022/03/19 09:16:29;;;;;;;39.40;28.90;;;;;;;;;;4999193;28;20282;-85
2022/03/19 09:18:54;;;;;;;34.40;22.57;;;;;;;;;;4992233;28;20276;-85
2022/03/19 09:21:19;;;;;;;30.40;21.83;;;;;;;;;;4996629;28;20175;-86
2022/03/19 09:23:49;;;;;;;41.53;27.83;;;;;;;;;;4992258;28;20181;-83
2022/03/19 09:26:14;;;;;;;29.33;20.47;;;;;;;;;;4994854;28;20198;-83
2022/03/19 09:28:40;;;;;;;16.87;11.67;;;;;;;;;;5006867;28;20240;-83
2022/03/19 09:31:05;;;;;;;19.67;12.23;;;;;;;;;;4998871;28;20186;-83
2022/03/19 09:33:30;;;;;;;22.27;14.73;;;;;;;;;;4997038;28;20248;-77
2022/03/19 09:35:57;;;;;;;18.87;11.23;;;;;;;;;;4988112;28;20188;-79
2022/03/19 09:38:22;;;;;;;30.93;17.00;;;;;;;;;;5005000;28;20187;-81
2022/03/19 09:40:48;;;;;;;21.53;12.60;;;;;;;;;;4996324;28;20180;-76
2022/03/19 09:43:13;;;;;;;24.77;19.20;;;;;;;;;;4996701;28;20244;-76
2022/03/19 09:45:39;;;;;;;31.90;20.83;;;;;;;;;;4995059;28;20329;-76
2022/03/19 09:48:04;;;;;;;32.23;21.57;;;;;;;;;;5009804;28;20181;-76
2022/03/19 09:50:30;;;;;;;28.87;19.57;;;;;;;;;;5010334;28;20179;-76
2022/03/19 09:52:56;;;;;;;27.70;18.27;;;;;;;;;;4994714;28;20202;-75
2022/03/19 09:55:26;;;;;;;30.20;20.20;;;;;;;;;;4997400;28;20403;-76
2022/03/19 09:57:52;;;;;;;29.87;18.23;;;;;;;;;;4994620;28;20272;-76
2022/03/19 10:00:17;;;;;;;33.00;21.43;;;;;;;;;;4991278;28;20232;-76
2022/03/19 10:02:51;;;;;;;29.90;21.17;;;;;;;;;;5001781;28;20181;-76
2022/03/19 10:10:46;;;;;;;31.00;19.73;;;;;;;;;;5010263;28;20194;-76
2022/03/19 10:13:11;;;;;;;32.60;20.43;;;;;;;;;;4995050;28;20199;-76
2022/03/19 10:15:40;;;;;;;27.17;17.20;;;;;;;;;;4996720;28;20235;-76
2022/03/19 10:18:07;;;;;;;24.00;15.40;;;;;;;;;;4994806;28;20277;-76
2022/03/19 10:20:34;;;;;;;25.37;17.27;;;;;;;;;;5000658;28;20175;-76
2022/03/19 10:22:59;;;;;;;28.60;20.40;;;;;;;;;;4993321;28;20186;-75
2022/03/19 10:25:24;;;;;;;27.63;16.83;;;;;;;;;;4989538;28;20176;-76
2022/03/19 10:27:59;;;;;;;20.33;14.77;;;;;;;;;;5010762;28;20251;-76
2022/03/19 10:30:27;;;;;;;31.57;14.77;;;;;;;;;;4999151;28;20186;-76
2022/03/19 10:32:53;;;;;;;28.00;20.80;;;;;;;;;;5017464;28;20813;-75
2022/03/19 10:35:32;;;;;;;29.10;17.77;;;;;;;;;;4992891;28;20183;-76
2022/03/19 10:37:59;;;;;;;41.43;21.97;;;;;;;;;;4988334;28;20208;-76
2022/03/19 10:40:37;;;;;;;30.90;20.13;;;;;;;;;;4993306;28;20189;-76
2022/03/19 10:43:04;;;;;;;22.77;13.67;;;;;;;;;;5013403;28;20455;-76
2022/03/19 10:45:30;;;;;;;30.63;16.77;;;;;;;;;;4995564;28;20180;-76
2022/03/19 10:47:55;;;;;;;29.60;19.70;;;;;;;;;;5005455;28;20187;-76
2022/03/19 10:50:21;;;;;;;31.23;19.00;;;;;;;;;;4992727;28;20210;-76
2022/03/19 10:52:47;;;;;;;28.73;18.67;;;;;;;;;;5008004;28;20195;-75
2022/03/19 10:55:13;;;;;;;32.87;21.87;;;;;;;;;;5014691;28;20269;-76
2022/03/19 10:57:38;;;;;;;25.43;15.20;;;;;;;;;;4990879;28;20483;-76
2022/03/19 11:00:04;;;;;;;24.53;17.23;;;;;;;;;;4989811;28;20175;-76
2022/03/19 11:02:30;;;;;;;29.77;20.27;;;;;;;;;;5003780;28;20191;-75
2022/03/19 11:04:57;;;;;;;22.87;12.90;;;;;;;;;;5022918;28;20195;-75
2022/03/19 11:07:24;;;;;;;22.97;15.73;;;;;;;;;;4991777;28;20189;-76
2022/03/19 11:09:53;;;;;;;30.17;18.33;;;;;;;;;;5006161;28;20179;-76
2022/03/19 11:12:21;;;;;;;24.83;17.73;;;;;;;;;;5014413;28;20630;-76
2022/03/19 11:14:49;;;;;;;22.00;12.30;;;;;;;;;;5006305;28;20249;-76
2022/03/19 11:17:24;;;;;;;33.20;20.40;;;;;;;;;;5002051;28;20234;-75
2022/03/19 11:19:55;;;;;;;24.10;17.97;;;;;;;;;;5017451;28;20181;-76
2022/03/19 11:22:23;;;;;;;26.27;17.17;;;;;;;;;;5017396;28;20189;-76
2022/03/19 11:25:22;;;;;;;34.27;20.23;;;;;;;;;;4995479;28;20217;-76
2022/03/19 11:27:48;;;;;;;28.93;20.03;;;;;;;;;;4993698;28;20195;-76
2022/03/19 11:30:21;;;;;;;16.37;11.20;;;;;;;;;;4990728;28;20247;-75
2022/03/19 11:33:19;;;;;;;32.13;21.40;;;;;;;;;;4990464;28;20215;-76
2022/03/19 11:36:04;;;;;;;31.93;22.77;;;;;;;;;;4937242;28;20196;-76
2022/03/19 11:38:31;;;;;;;36.17;22.07;;;;;;;;;;4988240;28;20280;-76
2022/03/19 11:40:57;;;;;;;34.17;22.73;;;;;;;;;;4998568;28;20283;-76
2022/03/19 11:43:31;;;;;;;30.50;18.00;;;;;;;;;;4999763;28;20305;-76
2022/03/19 11:46:07;;;;;;;30.60;19.93;;;;;;;;;;4996647;28;20186;-75
2022/03/19 11:48:38;;;;;;;20.97;13.70;;;;;;;;;;5006878;28;20222;-76
2022/03/19 11:51:20;;;;;;;19.63;13.03;;;;;;;;;;5007573;28;20187;-76
2022/03/19 11:53:53;;;;;;;29.13;19.77;;;;;;;;;;4993156;28;20195;-75
2022/03/19 11:56:19;;;;;;;30.97;18.13;;;;;;;;;;5028440;28;20227;-76
2022/03/19 11:58:45;;;;;;;29.80;19.47;;;;;;;;;;5001499;28;20190;-76
2022/03/19 12:01:10;;;;;;;27.80;19.17;;;;;;;;;;5004108;28;20179;-76
2022/03/19 12:03:55;;;;;;;21.50;13.83;;;;;;;;;;4991295;28;20218;-76
2022/03/19 12:06:30;;;;;;;19.20;13.47;;;;;;;;;;5029654;28;20218;-76
2022/03/19 12:08:56;;;;;;;24.17;14.17;;;;;;;;;;4993208;28;20273;-76
2022/03/19 12:11:22;;;;;;;24.33;14.83;;;;;;;;;;5006500;28;20277;-76
2022/03/19 12:13:50;;;;;;;14.10;9.80;;;;;;;;;;5021192;28;20231;-75
2022/03/19 12:16:34;;;;;;;13.40;8.70;;;;;;;;;;5026112;28;20175;-76
2022/03/19 12:19:00;;;;;;;18.40;11.47;;;;;;;;;;5013282;28;20185;-75
2022/03/19 12:21:25;;;;;;;16.03;10.83;;;;;;;;;;5032122;28;20188;-75
2022/03/19 12:24:17;;;;;;;16.03;10.90;;;;;;;;;;4993617;28;20176;-76
2022/03/19 12:26:44;;;;;;;15.47;9.80;;;;;;;;;;4982173;28;20246;-75
2022/03/19 12:29:12;;;;;;;11.03;7.43;;;;;;;;;;5018101;28;20182;-76
2022/03/19 12:31:41;;;;;;;14.73;10.50;;;;;;;;;;5001354;28;20178;-76
2022/03/19 12:34:13;;;;;;;14.97;9.53;;;;;;;;;;5007486;28;20205;-76
2022/03/19 12:36:38;;;;;;;8.03;5.50;;;;;;;;;;4995283;28;20171;-75
2022/03/19 12:39:04;;;;;;;10.30;6.67;;;;;;;;;;4989007;28;20224;-75
2022/03/19 12:41:32;;;;;;;16.83;9.87;;;;;;;;;;5000931;28;20180;-75
2022/03/19 12:44:00;;;;;;;15.80;10.53;;;;;;;;;;5011610;28;20187;-76
2022/03/19 12:46:29;;;;;;;13.67;9.13;;;;;;;;;;4993081;28;20202;-76
2022/03/19 12:49:01;;;;;;;19.07;10.70;;;;;;;;;;4995829;28;20191;-76
2022/03/19 12:51:26;;;;;;;17.53;10.57;;;;;;;;;;5037025;28;20185;-75
2022/03/19 12:53:52;;;;;;;13.53;8.97;;;;;;;;;;5008642;28;20226;-76
2022/03/19 12:56:25;;;;;;;14.60;9.20;;;;;;;;;;5014493;28;20214;-76
2022/03/19 12:58:52;;;;;;;13.87;10.27;;;;;;;;;;4997113;28;20179;-76
2022/03/19 13:01:18;;;;;;;14.10;9.63;;;;;;;;;;4995427;28;20184;-75
2022/03/19 13:03:44;;;;;;;13.10;8.60;;;;;;;;;;4996025;28;21449;-76
2022/03/19 13:06:10;;;;;;;14.47;8.43;;;;;;;;;;5031967;28;20200;-75
2022/03/19 13:08:48;;;;;;;13.93;8.73;;;;;;;;;;5037731;28;20226;-76
2022/03/19 13:11:14;;;;;;;12.43;7.80;;;;;;;;;;4999778;28;20178;-76
2022/03/19 13:13:41;;;;;;;18.03;8.40;;;;;;;;;;4998054;28;20295;-76
2022/03/19 13:16:06;;;;;;;11.23;7.20;;;;;;;;;;4990255;28;20188;-76
2022/03/19 13:18:35;;;;;;;11.60;6.67;;;;;;;;;;4996346;28;20530;-76
2022/03/19 13:21:02;;;;;;;11.97;7.97;;;;;;;;;;4992714;28;20203;-76
2022/03/19 13:23:27;;;;;;;13.13;8.30;;;;;;;;;;5003316;28;20179;-75
2022/03/19 13:25:53;;;;;;;13.93;7.93;;;;;;;;;;4998601;28;20216;-76
2022/03/19 13:28:18;;;;;;;10.70;7.63;;;;;;;;;;5008670;28;20182;-76
2022/03/19 13:30:49;;;;;;;11.00;6.53;;;;;;;;;;5035297;28;20177;-76
2022/03/19 13:33:17;;;;;;;8.67;7.00;;;;;;;;;;4998165;28;20215;-76
2022/03/19 13:35:47;;;;;;;9.97;5.07;;;;;;;;;;5004844;28;20179;-76
2022/03/19 13:38:13;;;;;;;8.77;4.13;;;;;;;;;;5001228;28;20183;-76
2022/03/19 13:40:39;;;;;;;6.63;4.87;;;;;;;;;;4993937;28;20330;-76
2022/03/19 13:43:04;;;;;;;8.67;4.73;;;;;;;;;;5020553;28;20239;-76
2022/03/19 13:45:33;;;;;;;10.47;6.03;;;;;;;;;;5023771;28;20192;-76
2022/03/19 13:48:03;;;;;;;9.27;6.43;;;;;;;;;;5004006;28;20180;-76
2022/03/19 13:50:28;;;;;;;9.20;5.70;;;;;;;;;;4998914;28;20275;-76
2022/03/19 13:52:57;;;;;;;8.27;6.13;;;;;;;;;;5003207;28;20321;-76
2022/03/19 13:55:22;;;;;;;10.40;6.60;;;;;;;;;;5013704;28;20183;-76
2022/03/19 13:57:49;;;;;;;5.68;4.25;;;;;;;;;;5018609;28;20178;-76
2022/03/19 14:00:16;;;;;;;7.07;5.10;;;;;;;;;;4997572;28;20187;-76
2022/03/19 14:02:42;;;;;;;7.50;4.23;;;;;;;;;;4992700;28;20183;-76
2022/03/19 14:05:07;;;;;;;8.90;5.57;;;;;;;;;;5012472;28;20218;-76
2022/03/19 14:07:34;;;;;;;12.57;5.60;;;;;;;;;;5004037;28;20183;-76
2022/03/19 14:09:59;;;;;;;5.13;4.23;;;;;;;;;;5020674;28;20210;-75
2022/03/19 14:12:32;;;;;;;8.17;4.00;;;;;;;;;;4992966;28;20298;-76
2022/03/19 14:14:58;;;;;;;6.27;4.73;;;;;;;;;;4996603;28;20294;-76
2022/03/19 14:17:41;;;;;;;7.50;3.90;;;;;;;;;;4996629;28;20184;-76
2022/03/19 14:20:06;;;;;;;4.87;4.00;;;;;;;;;;4993242;28;20200;-76
2022/03/19 14:22:31;;;;;;;3.83;3.17;;;;;;;;;;4991869;28;20286;-76
2022/03/19 14:24:58;;;;;;;6.87;3.30;;;;;;;;;;5002472;28;20185;-76
2022/03/19 14:27:23;;;;;;;3.63;2.20;;;;;;;;;;4994097;28;20183;-77
2022/03/19 14:29:49;;;;;;;5.70;3.40;;;;;;;;;;4997710;28;20206;-77
2022/03/19 14:32:14;;;;;;;6.30;3.47;;;;;;;;;;5001560;28;20218;-77
2022/03/19 14:34:39;;;;;;;4.57;2.70;;;;;;;;;;4996157;28;20176;-77
2022/03/19 14:37:04;;;;;;;4.77;3.37;;;;;;;;;;4995459;28;20171;-77
2022/03/19 14:39:29;;;;;;;6.53;3.30;;;;;;;;;;5010312;28;20198;-77